createdAt,value
2023-02-23T00:02:06.354Z,39.80
2023-02-23T00:04:34.575Z,40.90
2023-02-23T00:07:01.511Z,35.07
2023-02-23T00:09:35.921Z,40.17
2023-02-23T00:12:08.206Z,40.13
2023-02-23T00:14:37.829Z,42.20
2023-02-23T00:17:05.584Z,39.33
2023-02-23T00:19:33.629Z,38.60
2023-02-23T00:22:01.271Z,37.57
2023-02-23T00:24:28.188Z,40.60
2023-02-23T00:26:56.138Z,38.20
2023-02-23T00:29:24.896Z,41.00
2023-02-23T00:31:52.802Z,39.63
2023-02-23T00:34:21.634Z,38.40
2023-02-23T00:36:55.229Z,40.17
2023-02-23T00:39:26.594Z,38.90
2023-02-23T00:41:54.858Z,40.33
2023-02-23T00:44:23.672Z,38.90
2023-02-23T00:46:52.047Z,39.30
2023-02-23T00:49:20.809Z,40.07
2023-02-23T00:51:48.395Z,40.47
2023-02-23T00:54:16.961Z,40.17
2023-02-23T00:56:44.212Z,40.67
2023-02-23T00:59:11.746Z,40.30
2023-02-23T01:01:41.816Z,40.67
2023-02-23T01:04:09.312Z,39.20
2023-02-23T01:06:37.862Z,42.83
2023-02-23T01:09:14.598Z,41.10
2023-02-23T01:11:41.875Z,39.40
2023-02-23T01:14:10.628Z,38.90
2023-02-23T01:16:39.049Z,40.23
2023-02-23T01:19:06.731Z,41.33
2023-02-23T01:21:38.867Z,39.37
2023-02-23T01:24:06.810Z,40.67
2023-02-23T01:26:36.027Z,40.77
2023-02-23T01:29:08.842Z,39.30
2023-02-23T01:31:37.924Z,39.00
2023-02-23T01:34:06.204Z,38.77
2023-02-23T01:36:39.041Z,39.73
2023-02-23T01:39:09.229Z,40.20
2023-02-23T01:41:37.189Z,39.87
2023-02-23T01:44:27.001Z,38.07
2023-02-23T01:46:53.902Z,40.77
2023-02-23T01:49:25.744Z,42.10
2023-02-23T01:52:04.963Z,43.20
2023-02-23T01:54:39.074Z,42.53
2023-02-23T01:57:07.730Z,39.30
2023-02-23T01:59:39.950Z,42.80
2023-02-23T02:02:07.783Z,43.77
2023-02-23T02:04:45.935Z,40.80
2023-02-23T02:07:25.323Z,44.00
2023-02-23T02:10:31.922Z,44.00
2023-02-23T02:12:58.866Z,43.17
2023-02-23T02:15:32.005Z,42.67
2023-02-23T02:18:30.832Z,43.50
2023-02-23T02:21:18.394Z,44.27
2023-02-23T02:23:54.384Z,44.47
2023-02-23T02:26:29.606Z,43.33
2023-02-23T02:42:21.663Z,46.97
2023-02-23T02:45:19.103Z,45.73
2023-02-23T02:47:54.839Z,43.37
2023-02-23T02:50:46.570Z,43.23
2023-02-23T02:53:23.791Z,47.17
2023-02-23T02:55:52.967Z,47.17
2023-02-23T02:58:19.798Z,46.70
2023-02-23T03:01:08.591Z,45.50
2023-02-23T03:04:01.020Z,47.90
2023-02-23T03:07:16.692Z,47.23
2023-02-23T03:10:48.955Z,44.47
2023-02-23T03:14:15.749Z,45.40
2023-02-23T03:17:19.011Z,47.13
2023-02-23T03:20:49.135Z,47.27
2023-02-23T03:23:52.441Z,45.63
2023-02-23T03:27:00.977Z,47.30
2023-02-23T03:30:04.188Z,46.30
2023-02-23T03:33:13.115Z,44.73
2023-02-23T03:36:16.471Z,47.17
2023-02-23T03:39:13.401Z,46.50
2023-02-23T03:42:00.784Z,45.27
2023-02-23T03:44:57.706Z,45.53
2023-02-23T03:47:47.138Z,46.90
2023-02-23T03:50:52.874Z,47.10
2023-02-23T03:53:45.812Z,49.80
2023-02-23T03:56:35.066Z,50.27
2023-02-23T03:59:22.901Z,48.27
2023-02-23T04:02:09.951Z,49.83
2023-02-23T04:04:56.509Z,51.97
2023-02-23T04:07:42.944Z,47.20
2023-02-23T04:10:29.316Z,47.10
2023-02-23T04:13:24.166Z,47.20
2023-02-23T04:16:01.661Z,49.40
2023-02-23T04:18:30.877Z,48.90
2023-02-23T04:20:58.401Z,52.50
2023-02-23T04:23:25.896Z,50.37
2023-02-23T04:25:53.369Z,51.30
2023-02-23T04:28:21.693Z,50.17
2023-02-23T04:30:48.774Z,53.93
2023-02-23T04:33:16.022Z,51.83
2023-02-23T04:35:42.950Z,48.93
2023-02-23T04:38:10.151Z,52.10
2023-02-23T04:40:37.133Z,51.37
2023-02-23T04:43:03.968Z,51.70
2023-02-23T04:45:30.886Z,51.63
2023-02-23T04:47:57.750Z,52.87
2023-02-23T04:50:24.623Z,54.77
2023-02-23T04:52:53.381Z,53.30
2023-02-23T04:55:23.068Z,50.17
2023-02-23T04:57:50.390Z,51.63
2023-02-23T05:00:18.747Z,53.80
2023-02-23T05:02:46.062Z,54.27
2023-02-23T05:05:13.188Z,55.80
2023-02-23T05:07:40.046Z,52.30
2023-02-23T05:10:07.491Z,54.67
2023-02-23T05:12:34.341Z,53.13
2023-02-23T05:15:01.221Z,52.30
2023-02-23T05:17:28.595Z,52.73
2023-02-23T05:19:56.321Z,58.27
2023-02-23T05:22:23.485Z,56.57
2023-02-23T05:24:50.457Z,50.10
2023-02-23T05:27:17.948Z,54.70
2023-02-23T05:29:44.990Z,56.23
2023-02-23T05:32:12.027Z,52.30
2023-02-23T05:34:39.308Z,55.60
2023-02-23T05:37:06.501Z,54.37
2023-02-23T05:39:33.540Z,52.60
2023-02-23T05:42:00.388Z,54.07
2023-02-23T05:44:27.505Z,52.10
2023-02-23T05:46:54.435Z,51.33
2023-02-23T05:49:21.545Z,56.20
2023-02-23T05:51:48.696Z,53.63
2023-02-23T05:54:15.634Z,55.03
2023-02-23T05:56:43.317Z,54.23
2023-02-23T05:59:10.441Z,53.07
2023-02-23T06:01:37.316Z,53.40
2023-02-23T06:04:06.101Z,53.53
2023-02-23T06:06:33.372Z,52.90
2023-02-23T06:09:00.312Z,54.80
2023-02-23T06:11:27.293Z,54.60
2023-02-23T06:13:54.170Z,54.17
2023-02-23T06:16:21.169Z,57.00
2023-02-23T06:18:48.262Z,56.70
2023-02-23T06:21:15.195Z,55.27
2023-02-23T06:23:42.070Z,54.83
2023-02-23T06:26:09.586Z,58.43
2023-02-23T06:28:36.588Z,56.90
2023-02-23T06:31:03.973Z,57.73
2023-02-23T06:33:30.900Z,60.50
2023-02-23T06:35:57.798Z,59.67
2023-02-23T06:38:24.797Z,56.70
2023-02-23T06:40:51.623Z,59.83
2023-02-23T06:43:18.720Z,57.97
2023-02-23T06:45:47.147Z,58.50
2023-02-23T06:48:14.106Z,57.07
2023-02-23T06:50:41.060Z,56.77
2023-02-23T06:53:08.536Z,62.87
2023-02-23T06:55:35.406Z,59.70
2023-02-23T06:58:02.351Z,62.50
2023-02-23T07:00:30.563Z,58.90
2023-02-23T07:02:57.968Z,69.63
2023-02-23T07:05:24.852Z,59.70
2023-02-23T07:07:52.166Z,63.40
2023-02-23T07:10:19.161Z,61.00
2023-02-23T07:12:46.085Z,61.03
2023-02-23T07:15:12.976Z,58.77
2023-02-23T07:17:39.857Z,61.90
2023-02-23T07:20:07.188Z,60.00
2023-02-23T07:22:34.295Z,58.70
2023-02-23T07:25:01.294Z,59.17
2023-02-23T07:27:28.327Z,64.53
2023-02-23T07:29:55.213Z,56.27
2023-02-23T07:32:22.339Z,57.60
2023-02-23T07:34:49.312Z,59.60
2023-02-23T07:37:17.224Z,56.47
2023-02-23T07:39:44.350Z,56.20
2023-02-23T07:42:11.244Z,59.67
2023-02-23T07:44:38.804Z,58.47
2023-02-23T07:47:06.389Z,57.77
2023-02-23T07:49:34.338Z,56.97
2023-02-23T07:52:01.206Z,56.13
2023-02-23T07:54:28.196Z,62.17
2023-02-23T07:56:55.111Z,60.20
2023-02-23T07:59:21.980Z,57.50
2023-02-23T08:01:48.955Z,55.20
2023-02-23T08:04:15.841Z,58.10
2023-02-23T08:06:42.790Z,60.73
2023-02-23T08:09:11.249Z,55.07
2023-02-23T08:11:38.643Z,57.00
2023-02-23T08:14:05.510Z,58.93
2023-02-23T08:16:33.572Z,58.47
2023-02-23T08:19:01.252Z,57.27
2023-02-23T08:21:29.581Z,59.77
2023-02-23T08:23:57.957Z,61.23
2023-02-23T08:26:25.748Z,62.63
2023-02-23T08:28:53.867Z,61.67
2023-02-23T08:31:24.424Z,64.90
2023-02-23T08:33:52.933Z,65.67
2023-02-23T08:36:20.969Z,65.37
2023-02-23T08:38:48.254Z,60.50
2023-02-23T08:41:15.529Z,61.83
2023-02-23T08:43:44.111Z,66.27
2023-02-23T08:46:11.649Z,60.37
2023-02-23T08:48:40.567Z,64.10
2023-02-23T08:51:08.952Z,65.27
2023-02-23T08:53:36.502Z,63.50
2023-02-23T08:56:06.251Z,64.03
2023-02-23T08:58:34.160Z,60.60
2023-02-23T09:01:01.727Z,63.53
2023-02-23T09:03:30.802Z,64.13
2023-02-23T09:06:08.221Z,65.97
2023-02-23T09:08:35.329Z,65.70
2023-02-23T09:11:02.176Z,62.77
2023-02-23T09:13:29.065Z,64.60
2023-02-23T09:15:55.995Z,65.10
2023-02-23T09:18:24.176Z,63.30
2023-02-23T09:20:51.594Z,64.83
2023-02-23T09:23:18.559Z,64.77
2023-02-23T09:25:45.971Z,60.03
2023-02-23T09:28:17.952Z,63.93
2023-02-23T09:30:46.590Z,63.27
2023-02-23T09:33:13.990Z,71.10
2023-02-23T09:35:41.514Z,64.27
2023-02-23T09:38:09.356Z,62.60
2023-02-23T09:40:54.247Z,60.77
2023-02-23T09:44:02.724Z,60.10
2023-02-23T09:46:59.032Z,58.13
2023-02-23T09:49:29.911Z,54.93
2023-02-23T09:52:00.422Z,59.83
2023-02-23T09:54:32.797Z,55.83
2023-02-23T09:57:04.917Z,55.80
2023-02-23T09:59:31.937Z,56.27
2023-02-23T10:02:26.075Z,57.83
2023-02-23T10:05:03.933Z,54.07
2023-02-23T10:07:56.051Z,54.30
2023-02-23T10:10:42.435Z,55.43
2023-02-23T10:13:29.513Z,52.97
2023-02-23T10:16:18.598Z,53.70
2023-02-23T10:19:00.502Z,50.60
2023-02-23T10:21:53.978Z,55.17
2023-02-23T10:24:43.833Z,50.93
2023-02-23T10:27:16.541Z,51.50
2023-02-23T10:29:52.846Z,50.73
2023-02-23T10:32:42.046Z,52.47
2023-02-23T10:35:14.658Z,52.43
2023-02-23T10:37:41.895Z,52.40
2023-02-23T10:40:18.403Z,52.87
2023-02-23T10:42:45.357Z,51.23
2023-02-23T10:45:23.527Z,54.33
2023-02-23T10:48:03.997Z,51.27
2023-02-23T10:50:31.892Z,50.20
2023-02-23T10:53:24.237Z,52.83
2023-02-23T10:56:13.887Z,53.20
2023-02-23T10:58:56.212Z,51.30
2023-02-23T11:02:01.025Z,50.80
2023-02-23T11:04:35.337Z,51.17
2023-02-23T11:07:29.761Z,50.43
2023-02-23T11:09:58.570Z,54.87
2023-02-23T11:12:43.864Z,50.23
2023-02-23T11:15:48.545Z,52.90
2023-02-23T11:18:24.904Z,51.40
2023-02-23T11:20:52.548Z,51.40
2023-02-23T11:23:24.463Z,47.47
2023-02-23T11:25:55.628Z,49.50
2023-02-23T11:28:30.351Z,46.00
2023-02-23T11:31:09.499Z,47.70
2023-02-23T11:33:39.760Z,46.63
2023-02-23T11:36:28.093Z,45.67
2023-02-23T11:39:06.915Z,46.00
2023-02-23T11:41:37.187Z,41.77
2023-02-23T11:44:06.405Z,38.13
2023-02-23T11:46:38.133Z,39.27
2023-02-23T11:49:14.844Z,38.90
2023-02-23T11:51:49.162Z,37.60
2023-02-23T11:54:36.181Z,39.60
2023-02-23T11:57:10.272Z,38.93
2023-02-23T11:59:40.550Z,37.90
2023-02-23T12:02:25.795Z,33.30
2023-02-23T12:05:17.030Z,32.73
2023-02-23T12:07:51.565Z,32.67
2023-02-23T12:10:32.938Z,35.17
2023-02-23T12:13:38.620Z,30.50
2023-02-23T12:16:25.018Z,32.43
2023-02-23T12:19:25.859Z,30.60
2023-02-23T12:22:20.271Z,25.30
2023-02-23T12:25:14.618Z,28.03
2023-02-23T12:27:55.554Z,27.23
2023-02-23T12:30:52.308Z,26.70
2023-02-23T12:33:41.911Z,25.23
2023-02-23T12:36:42.814Z,26.40
2023-02-23T12:39:30.495Z,25.20
2023-02-23T12:42:20.525Z,22.93
2023-02-23T12:44:53.771Z,22.30
2023-02-23T12:47:57.986Z,23.27
2023-02-23T12:50:32.162Z,20.43
2023-02-23T12:53:07.046Z,23.40
2023-02-23T12:56:18.984Z,19.87
2023-02-23T12:59:30.933Z,20.27
2023-02-23T13:02:02.234Z,20.60
2023-02-23T13:05:22.684Z,20.33
2023-02-23T13:08:13.711Z,20.17
2023-02-23T13:10:55.635Z,21.43
2023-02-23T13:13:44.530Z,20.83
2023-02-23T13:16:29.623Z,21.50
2023-02-23T13:19:21.156Z,20.27
2023-02-23T13:22:33.799Z,20.10
2023-02-23T13:25:07.912Z,20.63
2023-02-23T13:27:43.098Z,21.83
2023-02-23T13:30:11.831Z,22.57
2023-02-23T13:32:39.645Z,25.20
2023-02-23T13:35:13.386Z,20.83
2023-02-23T13:37:59.703Z,22.70
2023-02-23T13:40:36.178Z,21.90
2023-02-23T13:43:30.188Z,21.30
2023-02-23T13:46:27.974Z,21.70
2023-02-23T13:49:18.395Z,22.03
2023-02-23T13:51:56.584Z,21.67
2023-02-23T13:54:30.710Z,21.20
2023-02-23T13:57:01.442Z,21.50
2023-02-23T13:59:38.514Z,21.20
2023-02-23T14:02:34.945Z,20.53
2023-02-23T14:05:04.941Z,22.73
2023-02-23T14:07:33.324Z,22.27
2023-02-23T14:10:07.290Z,22.47
2023-02-23T14:12:42.636Z,21.17
2023-02-23T14:15:48.434Z,21.00
2023-02-23T14:18:35.846Z,23.40
2023-02-23T14:21:26.612Z,23.07
2023-02-23T14:24:17.707Z,19.90
2023-02-23T14:27:38.619Z,22.23
2023-02-23T14:30:15.982Z,20.00
2023-02-23T14:32:48.554Z,21.40
2023-02-23T14:35:44.067Z,21.83
2023-02-23T14:38:17.480Z,21.07
2023-02-23T14:40:49.089Z,21.60
2023-02-23T14:43:42.494Z,22.57
2023-02-23T14:46:17.146Z,22.10
2023-02-23T14:48:58.631Z,23.00
2023-02-23T14:51:34.195Z,22.73
2023-02-23T14:54:01.455Z,23.00
2023-02-23T14:56:43.291Z,23.10
2023-02-23T14:59:21.192Z,23.87
2023-02-23T15:01:50.610Z,21.83
2023-02-23T15:04:20.870Z,24.57
2023-02-23T15:06:48.341Z,23.40
2023-02-23T15:09:29.552Z,23.80
2023-02-23T15:11:57.620Z,25.27
2023-02-23T15:14:28.160Z,25.93
2023-02-23T15:16:56.705Z,21.50
2023-02-23T15:19:26.225Z,20.03
2023-02-23T15:21:55.222Z,20.73
2023-02-23T15:24:27.543Z,22.37
2023-02-23T15:26:57.855Z,23.00
2023-02-23T15:29:30.200Z,22.80
2023-02-23T15:32:13.013Z,22.60
2023-02-23T15:34:40.134Z,23.30
2023-02-23T15:37:17.274Z,22.13
2023-02-23T15:39:58.641Z,22.50
2023-02-23T15:42:35.806Z,22.67
2023-02-23T15:45:05.642Z,23.47
2023-02-23T15:47:36.724Z,23.47
2023-02-23T15:50:36.514Z,25.20
2023-02-23T15:53:13.774Z,24.10
2023-02-23T15:55:43.867Z,21.87
2023-02-23T15:58:25.058Z,22.43
2023-02-23T16:01:08.598Z,22.50
2023-02-23T16:03:38.080Z,23.00
2023-02-23T16:06:08.397Z,21.30
2023-02-23T16:08:36.966Z,21.60
2023-02-23T16:11:19.202Z,23.03
2023-02-23T16:13:46.890Z,23.27
2023-02-23T16:16:20.468Z,22.70
2023-02-23T16:18:53.353Z,21.40
2023-02-23T16:21:25.426Z,21.07
2023-02-23T16:23:54.512Z,22.60
2023-02-23T16:26:57.334Z,22.53
2023-02-23T16:29:42.454Z,21.70
2023-02-23T16:32:33.667Z,21.10
2023-02-23T16:35:03.969Z,22.60
2023-02-23T16:37:30.913Z,22.57
2023-02-23T16:39:57.803Z,22.27
2023-02-23T16:42:32.609Z,25.30
2023-02-23T16:45:00.299Z,24.07
2023-02-23T16:47:42.351Z,26.30
2023-02-23T16:50:22.350Z,25.10
2023-02-23T16:52:54.461Z,24.23
2023-02-23T16:55:26.249Z,25.50
2023-02-23T16:57:57.055Z,25.63
2023-02-23T17:00:28.736Z,24.13
2023-02-23T17:02:57.490Z,22.97
2023-02-23T17:05:25.168Z,27.10
2023-02-23T17:07:52.783Z,24.10
2023-02-23T17:10:26.126Z,26.37
2023-02-23T17:12:59.408Z,25.07
2023-02-23T17:15:30.022Z,26.83
2023-02-23T17:17:57.505Z,25.30
2023-02-23T17:20:26.131Z,23.70
2023-02-23T17:22:58.253Z,32.43
2023-02-23T17:25:26.685Z,23.13
2023-02-23T17:27:57.868Z,21.20
2023-02-23T17:30:25.404Z,21.27
2023-02-23T17:32:55.297Z,22.53
2023-02-23T17:35:23.112Z,21.80
2023-02-23T17:37:50.416Z,23.33
2023-02-23T17:40:29.128Z,23.50
2023-02-23T17:42:58.649Z,22.30
2023-02-23T17:45:26.973Z,23.70
2023-02-23T17:47:54.437Z,22.10
2023-02-23T17:50:22.712Z,21.67
2023-02-23T17:52:51.009Z,21.33
2023-02-23T17:55:19.631Z,22.17
2023-02-23T17:57:47.258Z,21.87
2023-02-23T18:00:16.745Z,21.80
2023-02-23T18:02:45.200Z,22.83
2023-02-23T18:05:13.589Z,22.43
2023-02-23T18:07:41.178Z,22.17
2023-02-23T18:10:09.478Z,22.13
2023-02-23T18:12:36.540Z,21.20
2023-02-23T18:15:03.822Z,21.67
2023-02-23T18:17:32.649Z,20.30
2023-02-23T18:20:00.551Z,20.73
2023-02-23T18:22:28.140Z,20.90
2023-02-23T18:24:57.125Z,20.93
2023-02-23T18:27:24.620Z,20.27
2023-02-23T18:29:51.503Z,21.60
2023-02-23T18:32:18.652Z,21.33
2023-02-23T18:34:45.692Z,20.90
2023-02-23T18:37:12.679Z,23.60
2023-02-23T18:39:40.639Z,22.50
2023-02-23T18:42:07.607Z,22.10
2023-02-23T18:44:35.338Z,21.90
2023-02-23T18:47:03.301Z,21.23
2023-02-23T18:49:30.354Z,22.03
2023-02-23T18:51:58.208Z,22.73
2023-02-23T18:57:06.962Z,21.50
2023-02-23T18:59:34.017Z,21.40
2023-02-23T19:02:00.881Z,23.23
2023-02-23T19:04:27.994Z,21.13
2023-02-23T19:06:54.938Z,24.10
2023-02-23T19:09:21.764Z,21.90
2023-02-23T19:11:50.752Z,24.57
2023-02-23T19:14:19.907Z,25.20
2023-02-23T19:16:48.287Z,22.27
2023-02-23T19:19:16.141Z,23.07
2023-02-23T19:21:43.111Z,20.70
2023-02-23T19:24:10.280Z,22.67
2023-02-23T19:26:38.282Z,22.10
2023-02-23T19:29:06.221Z,25.97
2023-02-23T19:31:34.293Z,22.50
2023-02-23T19:34:03.438Z,22.97
2023-02-23T19:36:31.773Z,23.20
2023-02-23T19:39:11.075Z,23.70
2023-02-23T19:41:39.839Z,22.80
2023-02-23T19:44:06.858Z,22.77
2023-02-23T19:46:35.025Z,22.30
2023-02-23T19:49:02.009Z,22.80
2023-02-23T19:51:28.947Z,20.70
2023-02-23T19:53:57.277Z,21.77
2023-02-23T19:56:25.050Z,21.70
2023-02-23T19:58:52.346Z,25.57
2023-02-23T20:01:21.409Z,28.27
2023-02-23T20:03:55.387Z,28.77
2023-02-23T20:06:25.416Z,24.83
2023-02-23T20:08:52.726Z,24.83
2023-02-23T20:11:20.340Z,23.90
2023-02-23T20:13:47.535Z,25.23
2023-02-23T20:16:15.084Z,24.27
2023-02-23T20:18:43.925Z,27.37
2023-02-23T20:21:24.560Z,24.33
2023-02-23T20:23:51.742Z,23.97
2023-02-23T20:26:26.476Z,24.40
2023-02-23T20:28:54.764Z,25.80
2023-02-23T20:31:26.637Z,23.47
2023-02-23T20:33:56.131Z,26.43
2023-02-23T20:36:24.400Z,24.47
2023-02-23T20:38:52.152Z,29.70
2023-02-23T20:41:20.222Z,26.00
2023-02-23T20:43:47.469Z,18.60
2023-02-23T20:46:16.938Z,12.80
2023-02-23T20:48:43.994Z,13.87
2023-02-23T20:51:15.199Z,11.90
2023-02-23T20:53:46.823Z,9.53
2023-02-23T20:56:17.118Z,7.27
2023-02-23T20:58:46.247Z,8.93
2023-02-23T21:01:22.913Z,7.00
2023-02-23T21:03:51.639Z,8.37
2023-02-23T21:06:20.132Z,7.90
2023-02-23T21:08:51.140Z,6.40
2023-02-23T21:11:19.932Z,13.27
2023-02-23T21:13:47.267Z,8.20
2023-02-23T21:16:16.871Z,6.50
2023-02-23T21:18:44.016Z,8.90
2023-02-23T21:21:12.000Z,7.43
2023-02-23T21:23:43.386Z,9.33
2023-02-23T21:26:13.460Z,10.43
2023-02-23T21:28:42.286Z,11.40
2023-02-23T21:31:11.015Z,11.20
2023-02-23T21:33:39.216Z,8.43
2023-02-23T21:36:10.487Z,9.47
2023-02-23T21:38:42.842Z,9.93
2023-02-23T21:41:11.340Z,11.10
2023-02-23T21:43:40.138Z,9.67
2023-02-23T21:46:13.127Z,9.40
2023-02-23T21:48:40.845Z,11.00
2023-02-23T21:51:11.527Z,9.33
2023-02-23T21:53:39.272Z,9.47
2023-02-23T21:56:11.901Z,9.63
2023-02-23T21:58:43.240Z,8.60
2023-02-23T22:01:15.775Z,8.40
2023-02-23T22:03:45.159Z,8.37
2023-02-23T22:06:20.783Z,8.40
2023-02-23T22:08:50.622Z,8.23
2023-02-23T22:11:24.862Z,7.07
2023-02-23T22:13:54.519Z,8.93
2023-02-23T22:16:22.281Z,7.83
2023-02-23T22:18:50.639Z,6.80
2023-02-23T22:21:19.072Z,8.77
2023-02-23T22:24:15.654Z,6.83
2023-02-23T22:26:53.837Z,5.80
2023-02-23T22:29:22.699Z,6.30
2023-02-23T22:31:50.059Z,8.17
2023-02-23T22:34:18.453Z,7.90
2023-02-23T22:36:45.622Z,8.30
2023-02-23T22:39:18.506Z,9.03
2023-02-23T22:41:46.853Z,6.93
2023-02-23T22:44:16.812Z,9.43
2023-02-23T22:46:46.533Z,6.90
2023-02-23T22:49:16.051Z,6.30
2023-02-23T22:51:44.354Z,6.60
2023-02-23T22:54:13.429Z,5.57
2023-02-23T22:56:42.295Z,4.13
2023-02-23T22:59:11.105Z,4.77
2023-02-23T23:01:39.833Z,4.43
2023-02-23T23:04:10.543Z,5.00
2023-02-23T23:06:40.258Z,4.50
2023-02-23T23:09:09.498Z,5.33
2023-02-23T23:11:36.438Z,5.67
2023-02-23T23:14:07.057Z,6.77
2023-02-23T23:16:35.792Z,5.73
2023-02-23T23:19:08.073Z,5.50
2023-02-23T23:21:35.910Z,8.30
2023-02-23T23:24:07.654Z,6.00
2023-02-23T23:26:39.854Z,5.30
2023-02-23T23:29:10.229Z,7.20
2023-02-23T23:31:38.524Z,5.27
2023-02-23T23:34:10.078Z,5.87
2023-02-23T23:36:43.119Z,5.20
2023-02-23T23:39:16.309Z,5.97
2023-02-23T23:41:48.002Z,6.33
2023-02-23T23:44:21.013Z,5.70
2023-02-23T23:46:50.809Z,5.47
2023-02-23T23:49:20.735Z,6.17
2023-02-23T23:51:50.700Z,5.70
2023-02-23T23:54:24.393Z,6.00
2023-02-23T23:56:51.504Z,5.20
2023-02-23T23:59:21.546Z,5.60
